Time;durP1;ratioP1;P1;durP2;ratioP2;P2;SDS_P1;SDS_P2;PMS_P1;PMS_P2;Temp;Humidity;BMP_temperature;BMP_pressure;BME280_temperature;BME280_humidity;BME280_pressure;Samples;Min_cycle;Max_cycle;Signal;HPM_P1;HPM_P2
2021/06/21 00:03:50;;;;;;;4.62;3.40;;;;;;;26.00;44.61;99935.41;5197942;55;1136707;-84
2021/06/21 00:08:55;;;;;;;5.85;2.95;;;;;;;25.95;44.75;99931.25;5198062;56;1136802;-80
2021/06/21 00:14:02;;;;;;;4.75;3.72;;;;;;;25.92;44.90;99938.48;5198017;56;1137049;-81
2021/06/21 00:19:08;;;;;;;3.08;2.80;;;;;;;25.94;45.03;99944.49;5172659;56;1136541;-84
2021/06/21 00:24:19;;;;;;;3.72;3.40;;;;;;;25.89;45.14;99949.25;5141729;55;1136630;-78
2021/06/21 00:29:22;;;;;;;3.62;3.33;;;;;;;25.86;45.21;99945.64;5141758;56;1136474;-78
2021/06/21 00:34:28;;;;;;;4.62;3.12;;;;;;;25.80;45.34;99945.77;5113155;56;1136729;-84
2021/06/21 00:39:34;;;;;;;4.72;3.25;;;;;;;25.74;45.48;99936.67;5141713;56;1136525;-82
2021/06/21 00:44:40;;;;;;;4.10;3.10;;;;;;;25.68;45.60;99934.05;5141884;56;1136747;-81
2021/06/21 00:49:46;;;;;;;4.45;3.15;;;;;;;25.55;45.87;99923.69;5141912;56;1136693;-84
2021/06/21 00:55:02;;;;;;;5.00;2.98;;;;;;;25.46;46.02;99915.61;5069484;56;1136601;-83
2021/06/21 01:00:15;;;;;;;6.03;3.43;;;;;;;25.41;46.22;99914.63;5065943;56;1136562;-78
2021/06/21 01:05:25;;;;;;;3.17;2.85;;;;;;;25.34;46.36;99916.09;5077192;56;1137056;-82
2021/06/21 01:10:32;;;;;;;5.05;3.08;;;;;;;25.26;46.54;99916.93;5077383;56;1136719;-88
2021/06/21 01:15:41;;;;;;;7.58;3.35;;;;;;;25.14;46.85;99916.89;5067916;55;1136543;-82
2021/06/21 01:21:10;;;;;;;5.12;3.67;;;;;;;25.03;47.16;99919.02;5075945;56;1136571;-83
2021/06/21 01:26:29;;;;;;;3.02;2.75;;;;;;;24.94;47.41;99919.01;5077265;56;1136672;-83
2021/06/21 01:31:43;;;;;;;3.02;2.80;;;;;;;24.79;47.84;99918.84;5077358;56;1136462;-78
2021/06/21 01:36:53;;;;;;;6.30;3.58;;;;;;;24.69;48.24;99909.09;5077844;56;1136630;-78
2021/06/21 01:42:03;;;;;;;8.65;3.20;;;;;;;24.57;48.57;99911.42;5078198;56;1136470;-84
2021/06/21 01:47:15;;;;;;;3.58;3.27;;;;;;;24.47;48.75;99918.68;5077869;56;1136646;-85
2021/06/21 01:52:21;;;;;;;4.05;3.65;;;;;;;24.39;48.97;99914.93;5119073;56;1136555;-79
2021/06/21 01:57:31;;;;;;;3.60;3.22;;;;;;;24.34;49.22;99920.17;5163097;56;1136679;-87
2021/06/21 02:02:39;;;;;;;3.37;3.02;;;;;;;24.33;49.34;99917.16;5162444;56;1136713;-81
2021/06/21 02:07:48;;;;;;;5.00;2.85;;;;;;;24.33;49.42;99909.05;5159222;56;1136758;-83
2021/06/21 02:12:56;;;;;;;4.17;3.35;;;;;;;24.22;49.66;99908.41;5163198;56;1136546;-83
2021/06/21 02:18:03;;;;;;;3.95;2.85;;;;;;;24.16;49.71;99914.17;5131195;56;1136736;-88
2021/06/21 02:23:10;;;;;;;10.85;3.70;;;;;;;24.14;49.83;99924.37;5159585;56;1136639;-83
2021/06/21 02:28:19;;;;;;;4.12;3.25;;;;;;;24.11;49.90;99930.23;5162407;56;1138654;-87
2021/06/21 02:33:26;;;;;;;7.03;3.58;;;;;;;24.06;50.04;99937.65;5130604;56;1136590;-81
2021/06/21 02:38:32;;;;;;;5.62;3.50;;;;;;;24.01;50.33;99936.64;5162848;56;1136461;-80
2021/06/21 02:43:38;;;;;;;5.42;3.08;;;;;;;23.93;50.36;99934.23;5162808;56;1136591;-87
2021/06/21 02:48:44;;;;;;;6.75;3.98;;;;;;;23.87;50.55;99927.82;5162411;56;1137047;-84
2021/06/21 02:54:10;;;;;;;3.47;3.17;;;;;;;23.83;50.84;99936.88;5158866;55;1136826;-81
2021/06/21 02:59:18;;;;;;;3.40;3.20;;;;;;;23.74;51.03;99951.70;5141860;56;1136518;-86
2021/06/21 03:04:26;;;;;;;4.15;3.85;;;;;;;23.72;51.21;99957.84;5089067;56;1136498;-83
2021/06/21 03:09:33;;;;;;;3.27;3.00;;;;;;;23.66;51.38;99957.38;5116722;56;1136697;-84
2021/06/21 03:14:46;;;;;;;11.30;3.20;;;;;;;23.61;51.67;99955.02;5108959;55;1136635;-78
2021/06/21 03:19:51;;;;;;;12.03;3.55;;;;;;;23.53;51.82;99947.98;5163116;55;1138714;-78
2021/06/21 03:24:57;;;;;;;3.85;3.40;;;;;;;23.44;52.09;99937.12;5094688;55;1138569;-78
2021/06/21 03:30:07;;;;;;;4.58;3.40;;;;;;;23.38;52.41;99931.23;5099406;55;1137080;-77
2021/06/21 03:35:14;;;;;;;4.50;4.10;;;;;;;23.30;52.56;99925.58;5143167;55;1136778;-78
2021/06/21 03:40:21;;;;;;;9.45;3.52;;;;;;;23.27;52.80;99922.48;5147814;55;1136627;-78
2021/06/21 03:45:27;;;;;;;9.68;3.95;;;;;;;23.28;53.02;99936.28;5157776;55;1136761;-78
2021/06/21 03:50:33;;;;;;;5.08;3.95;;;;;;;23.28;53.28;99933.06;5144254;55;1136744;-78
2021/06/21 03:55:39;;;;;;;4.60;3.25;;;;;;;23.30;53.57;99938.24;5137653;55;1136498;-82
2021/06/21 04:00:47;;;;;;;4.50;3.40;;;;;;;23.33;53.65;99949.45;5119355;55;1136571;-83
2021/06/21 04:05:53;;;;;;;5.05;3.58;;;;;;;23.34;53.79;99943.00;5094886;55;1136468;-84
2021/06/21 04:10:59;;;;;;;5.08;3.77;;;;;;;23.38;54.19;99932.06;5072156;56;1136602;-81
2021/06/21 04:16:05;;;;;;;4.35;3.98;;;;;;;23.42;54.44;99928.41;5065842;56;1136585;-82
2021/06/21 04:21:11;;;;;;;6.07;3.70;;;;;;;23.48;54.73;99931.09;5088906;55;1136703;-78
2021/06/21 04:26:17;;;;;;;10.68;3.92;;;;;;;23.52;54.95;99937.44;5127028;55;1136846;-80
2021/06/21 04:31:23;;;;;;;8.25;4.20;;;;;;;23.53;55.17;99933.14;5087698;56;1138740;-77
2021/06/21 04:36:29;;;;;;;4.60;4.15;;;;;;;23.59;55.40;99930.11;5066304;56;1136437;-81
2021/06/21 04:41:35;;;;;;;4.30;4.00;;;;;;;23.66;55.84;99939.83;5066840;56;1136612;-80
2021/06/21 04:46:40;;;;;;;4.55;4.10;;;;;;;23.72;55.92;99948.91;5066420;56;1136517;-79
2021/06/21 04:51:48;;;;;;;8.93;4.33;;;;;;;23.80;56.19;99947.31;5116247;55;1136707;-79
2021/06/21 04:56:54;;;;;;;5.00;4.28;;;;;;;23.85;56.53;99951.00;5066437;56;1136527;-80
2021/06/21 05:02:00;;;;;;;5.17;4.42;;;;;;;23.94;57.18;99957.50;5066689;56;1136638;-81
2021/06/21 05:07:06;;;;;;;7.42;4.22;;;;;;;24.01;56.86;99942.88;5066791;56;1136552;-79
2021/06/21 05:12:12;;;;;;;10.88;4.15;;;;;;;24.09;57.19;99944.48;5066325;56;1136576;-79
2021/06/21 05:17:18;;;;;;;10.25;4.78;;;;;;;24.17;57.24;99940.97;5067603;56;1138609;-84
2021/06/21 05:22:24;;;;;;;10.82;5.08;;;;;;;24.27;57.32;99939.17;5066247;56;1138755;-79
2021/06/21 05:27:31;;;;;;;18.00;5.05;;;;;;;24.38;57.32;99938.43;5066322;56;1138581;-80
2021/06/21 05:32:37;;;;;;;7.22;4.45;;;;;;;24.48;57.42;99931.98;5066236;56;1138685;-82
2021/06/21 05:37:43;;;;;;;14.23;4.67;;;;;;;24.61;57.45;99935.58;5066502;56;1136693;-83
2021/06/21 05:42:49;;;;;;;16.30;4.60;;;;;;;24.76;57.67;99930.11;5145686;55;1138768;-80
2021/06/21 05:47:56;;;;;;;11.12;4.65;;;;;;;24.91;57.64;99925.66;5145106;55;1138780;-81
2021/06/21 05:53:02;;;;;;;13.42;4.80;;;;;;;25.03;57.52;99924.43;5095651;55;1138795;-81
2021/06/21 05:58:07;;;;;;;6.55;5.10;;;;;;;25.15;57.28;99910.42;5066451;56;1138904;-79
2021/06/21 06:03:13;;;;;;;7.90;4.90;;;;;;;25.23;57.10;99892.50;5119666;55;1136623;-82
2021/06/21 06:08:20;;;;;;;12.13;5.80;;;;;;;25.35;57.00;99902.03;5066602;56;1136586;-83
2021/06/21 06:13:26;;;;;;;11.30;5.00;;;;;;;25.46;56.67;99902.07;5066388;56;1138784;-79
2021/06/21 06:18:32;;;;;;;10.90;5.78;;;;;;;25.55;56.54;99911.50;5072216;56;1138540;-80
2021/06/21 06:23:38;;;;;;;13.50;5.72;;;;;;;25.65;56.22;99906.92;5066790;56;1138673;-81
2021/06/21 06:28:44;;;;;;;9.90;4.78;;;;;;;25.74;56.00;99906.05;5067132;56;1138802;-79
2021/06/21 06:33:50;;;;;;;14.10;5.15;;;;;;;25.86;55.84;99902.29;5067020;56;1136558;-78
2021/06/21 06:38:56;;;;;;;8.35;4.92;;;;;;;26.01;55.71;99891.52;5066823;56;1138843;-82
2021/06/21 06:44:03;;;;;;;12.85;5.10;;;;;;;26.15;55.49;99883.45;5067259;56;1136700;-78
2021/06/21 06:49:11;;;;;;;9.95;5.08;;;;;;;26.33;55.58;99890.14;5066976;56;1138880;-82
2021/06/21 06:59:23;;;;;;;15.50;5.70;;;;;;;26.63;54.80;99894.05;5161036;55;1136525;-80
2021/06/21 07:04:31;;;;;;;9.08;5.62;;;;;;;26.77;54.78;99884.58;5162103;55;1138681;-83
2021/06/21 07:09:38;;;;;;;20.17;5.85;;;;;;;26.90;54.46;99892.44;5170398;55;1136646;-75
2021/06/21 07:14:43;;;;;;;12.65;5.65;;;;;;;27.02;54.21;99892.98;5140359;55;1138903;-79
2021/06/21 07:19:49;;;;;;;110.30;9.78;;;;;;;27.12;54.00;99893.17;5146569;55;1138651;-75
2021/06/21 07:24:55;;;;;;;19.62;5.25;;;;;;;27.27;53.71;99897.54;5180903;55;1140655;-81
2021/06/21 07:30:01;;;;;;;16.32;5.45;;;;;;;27.43;53.50;99895.93;5157445;55;1138765;-87
2021/06/21 07:35:08;;;;;;;18.05;6.03;;;;;;;27.57;53.39;99892.69;5140257;55;1138617;-80
2021/06/21 07:40:14;;;;;;;6.15;4.78;;;;;;;27.74;53.02;99893.23;5140574;55;1138790;-80
2021/06/21 07:45:20;;;;;;;15.28;5.75;;;;;;;27.89;52.19;99881.26;5140147;55;1136618;-84
2021/06/21 07:50:30;;;;;;;14.47;5.45;;;;;;;28.00;51.97;99880.34;5140084;55;1138602;-83
2021/06/21 07:55:52;;;;;;;14.00;4.92;;;;;;;28.12;51.92;99862.56;5139944;55;1138561;-82
2021/06/21 08:00:58;;;;;;;12.53;5.30;;;;;;;28.30;50.95;99866.40;5156151;55;1138839;-82
2021/06/21 08:06:08;;;;;;;13.30;5.26;;;;;;;28.41;50.73;99859.22;5147197;55;1138658;-79
2021/06/21 08:11:14;;;;;;;8.15;5.67;;;;;;;28.52;51.16;99855.55;5174077;55;1138774;-81
2021/06/21 08:16:20;;;;;;;15.75;5.47;;;;;;;28.65;50.49;99856.53;5177882;55;1136755;-80
2021/06/21 08:21:26;;;;;;;13.00;5.20;;;;;;;28.84;50.79;99859.25;5147919;55;1138659;-78
2021/06/21 08:26:31;;;;;;;9.00;5.47;;;;;;;28.94;50.15;99855.81;5139622;55;1138570;-77
2021/06/21 08:31:37;;;;;;;6.80;5.08;;;;;;;29.06;50.33;99852.39;5140377;55;1136705;-80
2021/06/21 08:36:42;;;;;;;13.15;4.47;;;;;;;29.23;50.02;99841.41;5158885;55;1136754;-80
2021/06/21 08:41:49;;;;;;;14.15;4.50;;;;;;;29.36;49.38;99850.52;5140979;55;1138662;-80
2021/06/21 08:46:55;;;;;;;8.03;4.70;;;;;;;29.50;49.01;99851.77;5153368;55;1138539;-81
2021/06/21 08:52:02;;;;;;;11.78;4.17;;;;;;;29.69;47.84;99839.39;5140663;55;1136888;-80
2021/06/21 08:57:10;;;;;;;15.83;5.28;;;;;;;29.84;46.69;99834.59;5161718;55;1139160;-74
2021/06/21 09:02:16;;;;;;;9.50;4.75;;;;;;;29.94;46.49;99836.59;5171779;55;1138886;-78
2021/06/21 09:07:25;;;;;;;6.72;4.05;;;;;;;30.06;46.58;99830.42;5161903;55;1136684;-76
2021/06/21 09:12:33;;;;;;;89.72;9.43;;;;;;;30.25;46.12;99826.14;5149207;55;1136605;-80
2021/06/21 09:17:40;;;;;;;7.80;3.45;;;;;;;30.42;46.16;99822.69;5150353;55;1139432;-81
2021/06/21 09:23:02;;;;;;;7.72;3.65;;;;;;;30.58;44.50;99829.06;5168896;55;1136514;-80
2021/06/21 09:28:06;;;;;;;66.10;7.47;;;;;;;30.64;44.47;99838.10;5167834;55;1136871;-81
2021/06/21 09:33:29;;;;;;;14.93;3.02;;;;;;;30.71;43.49;99845.48;5178609;55;1138711;-81
2021/06/21 09:38:35;;;;;;;5.55;3.08;;;;;;;30.79;43.34;99844.98;5168627;55;1138528;-85
2021/06/21 09:43:41;;;;;;;3.65;2.70;;;;;;;30.92;42.57;99844.47;5140489;55;1136503;-82
2021/06/21 09:48:55;;;;;;;5.55;2.98;;;;;;;31.05;40.74;99834.39;5166100;55;1136452;-80
2021/06/21 09:54:14;;;;;;;11.40;2.96;;;;;;;31.18;40.66;99834.98;5186804;55;1136741;-78
2021/06/21 09:59:32;;;;;;;15.93;3.22;;;;;;;31.36;40.18;99835.84;5144612;55;1138656;-78
2021/06/21 10:04:41;;;;;;;12.65;3.15;;;;;;;31.52;39.49;99825.19;5149722;55;1138639;-80
2021/06/21 10:09:59;;;;;;;10.18;3.40;;;;;;;31.72;39.88;99827.95;5174451;55;1138561;-79
2021/06/21 10:15:08;;;;;;;14.13;3.92;;;;;;;31.87;39.63;99814.80;5152750;55;1138680;-81
2021/06/21 10:20:15;;;;;;;9.93;2.87;;;;;;;31.94;39.03;99811.22;5178084;55;1138937;-79
2021/06/21 10:25:20;;;;;;;16.90;3.33;;;;;;;31.98;38.83;99813.68;5177865;55;1136714;-79
2021/06/21 10:30:26;;;;;;;33.40;4.42;;;;;;;32.05;37.73;99806.56;5168052;55;1138837;-78
2021/06/21 10:35:32;;;;;;;10.08;3.12;;;;;;;32.06;37.90;99806.84;5146388;55;1138725;-81
2021/06/21 10:41:05;;;;;;;92.62;6.47;;;;;;;32.13;37.68;99808.17;5170124;55;1138695;-77
2021/06/21 10:46:23;;;;;;;35.38;4.37;;;;;;;32.29;37.93;99804.87;5196875;55;1138841;-74
2021/06/21 10:51:36;;;;;;;13.98;3.00;;;;;;;32.48;36.90;99795.50;5188490;55;1138678;-79
2021/06/21 10:56:57;;;;;;;17.57;3.30;;;;;;;32.59;36.57;99788.86;5191419;55;1138683;-81
2021/06/21 11:02:00;;;;;;;14.85;2.77;;;;;;;32.75;36.32;99795.11;5145646;55;1138883;-79
2021/06/21 11:07:22;;;;;;;10.05;2.80;;;;;;;32.89;35.11;99787.90;5198690;55;1138794;-78
2021/06/21 11:12:36;;;;;;;129.75;10.18;;;;;;;32.95;35.17;99773.08;5201780;55;1138583;-75
2021/06/21 11:17:56;;;;;;;19.35;3.20;;;;;;;33.09;34.08;99756.26;5174747;55;1142780;-78
2021/06/21 11:23:05;;;;;;;6.10;2.83;;;;;;;33.22;34.06;99747.93;5169358;55;1138745;-80
2021/06/21 11:28:43;;;;;;;17.52;2.95;;;;;;;33.35;33.97;99751.41;5161766;55;1136576;-75
2021/06/21 11:34:04;;;;;;;9.53;2.67;;;;;;;33.40;33.93;99737.66;5160319;55;1138763;-78
2021/06/21 11:39:30;;;;;;;11.70;3.37;;;;;;;33.52;33.26;99735.90;5168107;55;1136798;-80
2021/06/21 11:44:45;;;;;;;17.73;3.05;;;;;;;33.64;33.22;99723.98;5166668;55;1138876;-82
2021/06/21 11:49:54;;;;;;;9.25;2.80;;;;;;;33.65;32.73;99730.28;5144340;55;1138679;-82
2021/06/21 11:55:22;;;;;;;12.65;3.55;;;;;;;33.72;32.96;99723.36;5134474;56;1136689;-78
2021/06/21 12:00:09;;;;;;;8.70;3.02;;;;;;;33.77;31.88;99719.20;5088928;56;1138718;-71
2021/06/21 12:05:18;;;;;;;16.57;2.87;;;;;;;33.76;31.84;99719.48;5103772;56;1136726;-82
2021/06/21 12:10:24;;;;;;;11.30;2.65;;;;;;;33.80;31.99;99708.20;5089821;55;1138623;-78
2021/06/21 12:15:38;;;;;;;13.98;2.90;;;;;;;33.91;32.80;99719.90;5145283;55;1138755;-80
2021/06/21 12:20:43;;;;;;;19.95;2.95;;;;;;;34.04;32.72;99710.95;5125550;56;1138805;-76
2021/06/21 12:25:50;;;;;;;8.85;2.77;;;;;;;34.13;31.91;99711.93;5093550;56;1138964;-73
2021/06/21 12:31:00;;;;;;;18.30;2.70;;;;;;;34.20;31.81;99695.93;5127324;55;1136578;-76
2021/06/21 12:36:23;;;;;;;15.85;2.75;;;;;;;34.31;31.66;99691.96;5056484;56;1138622;-77
2021/06/21 12:41:34;;;;;;;15.18;2.95;;;;;;;34.42;30.99;99692.62;5106377;55;1138604;-74
2021/06/21 12:46:46;;;;;;;8.33;2.60;;;;;;;34.47;30.74;99671.41;5078279;56;1138776;-75
2021/06/21 12:51:53;;;;;;;15.13;3.08;;;;;;;34.53;30.63;99687.23;5107653;55;1136512;-75
2021/06/21 12:56:58;;;;;;;24.77;4.25;;;;;;;34.64;30.83;99681.87;5086714;56;1138692;-76
2021/06/21 13:02:26;;;;;;;13.78;3.30;;;;;;;34.74;30.22;99683.08;5084208;56;1258990;-80
2021/06/21 13:07:32;;;;;;;12.58;3.60;;;;;;;34.76;29.76;99684.16;5154083;55;1138627;-81
2021/06/21 13:12:43;;;;;;;7.25;2.00;;;;;;;34.84;29.77;99676.06;5150927;56;1138825;-80
2021/06/21 13:17:55;;;;;;;14.68;3.60;;;;;;;35.02;29.19;99681.83;5145142;56;1136516;-79
2021/06/21 13:23:01;;;;;;;11.80;2.20;;;;;;;35.00;28.69;99673.06;5122717;55;1138723;-77
2021/06/21 13:28:11;;;;;;;8.90;2.45;;;;;;;35.01;27.99;99691.19;5137052;55;1138676;-77
2021/06/21 13:33:21;;;;;;;11.60;2.63;;;;;;;35.03;27.32;99693.08;5150854;55;1136619;-80
2021/06/21 13:38:32;;;;;;;16.97;3.05;;;;;;;35.14;27.91;99709.69;5154820;55;1138542;-79
2021/06/21 13:43:38;;;;;;;14.53;2.37;;;;;;;35.20;27.78;99707.91;5142740;55;1138730;-79
2021/06/21 13:48:50;;;;;;;7.30;1.85;;;;;;;35.24;27.85;99702.63;5156485;55;1138620;-77
2021/06/21 13:53:52;;;;;;;10.85;2.62;;;;;;;35.33;26.51;99704.14;5156867;55;1136733;-80
2021/06/21 13:59:12;;;;;;;6.53;2.22;;;;;;;35.38;26.24;99698.56;5156584;55;1138527;-82
2021/06/21 14:04:18;;;;;;;13.03;2.50;;;;;;;35.40;25.55;99711.45;5148758;55;1136506;-78
2021/06/21 14:09:24;;;;;;;13.35;2.52;;;;;;;35.45;26.25;99723.71;5148755;55;1138781;-77
2021/06/21 14:14:30;;;;;;;9.35;3.52;;;;;;;35.53;26.40;99705.97;5147839;56;1138561;-80
2021/06/21 14:19:36;;;;;;;7.70;3.10;;;;;;;35.52;25.33;99681.52;5134726;55;1136492;-80
2021/06/21 14:24:42;;;;;;;8.58;2.52;;;;;;;35.54;25.45;99684.78;5091767;56;1136653;-81
2021/06/21 14:29:48;;;;;;;5.62;2.35;;;;;;;35.52;24.85;99694.71;5064115;57;1136594;-79
2021/06/21 14:34:54;;;;;;;13.62;3.22;;;;;;;35.52;24.22;99698.83;5064062;56;1137043;-77
2021/06/21 14:40:01;;;;;;;8.45;2.90;;;;;;;35.46;23.88;99695.09;5076837;55;1138742;-77
2021/06/21 14:45:09;;;;;;;8.93;2.52;;;;;;;35.41;24.39;99695.21;5114850;56;1136689;-80
2021/06/21 14:50:21;;;;;;;4.58;2.80;;;;;;;35.46;24.26;99686.84;5081383;56;1136770;-78
2021/06/21 14:55:24;;;;;;;2.95;2.75;;;;;;;35.48;24.23;99685.98;5148176;56;1136616;-79
2021/06/21 15:00:30;;;;;;;3.60;2.27;;;;;;;35.51;24.70;99688.95;5111927;55;1136466;-77
2021/06/21 15:05:47;;;;;;;5.60;2.47;;;;;;;35.54;24.78;99678.72;5132765;55;1136529;-80
2021/06/21 15:10:56;;;;;;;6.20;2.77;;;;;;;35.55;24.44;99667.16;5137707;56;1136506;-76
2021/06/21 15:16:01;;;;;;;13.88;2.65;;;;;;;35.48;24.82;99672.23;5080711;56;1136614;-80
2021/06/21 15:21:07;;;;;;;5.72;2.70;;;;;;;35.41;25.10;99663.58;5061168;57;1231754;-82
2021/06/21 15:26:13;;;;;;;9.88;2.72;;;;;;;35.39;25.37;99669.95;5062135;57;1137062;-82
2021/06/21 15:31:19;;;;;;;13.28;3.20;;;;;;;35.35;25.85;99657.91;5044991;57;1136763;-79
2021/06/21 15:36:25;;;;;;;6.80;3.05;;;;;;;35.33;26.39;99657.39;5046455;57;1138796;-87
2021/06/21 15:41:32;;;;;;;10.08;2.87;;;;;;;35.24;26.44;99651.77;5046583;57;1136781;-85
2021/06/21 15:46:37;;;;;;;9.85;2.87;;;;;;;35.18;26.54;99655.16;5042310;57;1138600;-81
2021/06/21 15:51:44;;;;;;;9.35;3.98;;;;;;;35.10;26.70;99655.05;4998131;57;1136548;-87
2021/06/21 15:56:50;;;;;;;11.28;2.55;;;;;;;35.04;26.99;99657.05;5050865;57;1136680;-78
2021/06/21 16:01:55;;;;;;;11.78;2.72;;;;;;;34.94;27.21;99660.55;5050631;57;1138613;-82
2021/06/21 16:07:01;;;;;;;10.25;2.67;;;;;;;34.84;27.53;99662.33;5049888;57;1138782;-81
2021/06/21 16:12:08;;;;;;;8.13;3.58;;;;;;;34.70;27.96;99668.86;5050168;57;1138735;-83
2021/06/21 16:17:13;;;;;;;10.94;3.38;;;;;;;34.62;28.18;99665.42;5050702;57;1136600;-80
2021/06/21 16:22:19;;;;;;;10.75;3.20;;;;;;;34.56;28.31;99661.38;5005865;57;1138566;-81
2021/06/21 16:27:26;;;;;;;15.25;4.00;;;;;;;34.49;28.67;99667.81;5042962;57;1138578;-82
2021/06/21 16:32:32;;;;;;;11.12;3.67;;;;;;;34.43;29.19;99668.17;5138365;56;1138797;-84
2021/06/21 16:37:38;;;;;;;14.25;3.77;;;;;;;34.30;29.72;99666.98;5187706;55;1138642;-84
2021/06/21 16:42:43;;;;;;;14.73;4.42;;;;;;;34.16;29.92;99659.20;5249645;55;1138720;-79
2021/06/21 16:47:51;;;;;;;12.03;3.40;;;;;;;34.03;30.27;99659.38;5249688;55;1138773;-84
2021/06/21 16:52:58;;;;;;;11.83;3.80;;;;;;;33.97;30.78;99672.88;5249658;55;1138985;-86
2021/06/21 16:58:04;;;;;;;13.72;4.58;;;;;;;33.65;32.83;99682.29;5249829;55;1138811;-83
2021/06/21 17:03:10;;;;;;;13.98;5.60;;;;;;;33.24;33.94;99703.23;5250083;55;1138653;-80
2021/06/21 17:08:16;;;;;;;5.92;5.12;;;;;;;32.89;36.47;99724.08;5176308;55;1138720;-83
2021/06/21 17:13:22;;;;;;;13.95;5.60;;;;;;;32.42;37.55;99733.09;5166425;55;1136560;-82
2021/06/21 17:18:28;;;;;;;11.20;8.18;;;;;;;32.01;38.93;99745.29;5173931;55;1138751;-83
2021/06/21 17:23:35;;;;;;;27.25;17.37;;;;;;;31.75;40.21;99741.81;5130190;56;1138682;-79
2021/06/21 17:28:41;;;;;;;18.77;10.15;;;;;;;31.51;41.01;99742.91;5071895;56;1140653;-84
2021/06/21 17:33:47;;;;;;;32.75;18.17;;;;;;;31.34;41.62;99756.85;5010867;56;1140784;-83
2021/06/21 17:38:53;;;;;;;20.03;13.27;;;;;;;31.17;42.75;99765.08;4955709;57;1140948;-82
2021/06/21 17:43:59;;;;;;;14.23;10.10;;;;;;;30.97;42.94;99754.91;4975947;57;1140817;-77
2021/06/21 17:49:05;;;;;;;14.83;9.58;;;;;;;30.85;43.52;99752.45;4997974;57;1140780;-81
2021/06/21 17:54:10;;;;;;;40.00;15.43;;;;;;;30.82;43.53;99752.98;4997607;57;1138870;-79
2021/06/21 17:59:17;;;;;;;18.37;12.93;;;;;;;30.80;43.90;99748.33;5073603;56;1140773;-79
2021/06/21 18:04:22;;;;;;;27.77;14.87;;;;;;;30.74;44.16;99740.66;5080806;56;1140738;-78
2021/06/21 18:09:29;;;;;;;14.18;7.37;;;;;;;30.70;44.54;99744.23;5080778;56;1140737;-80
2021/06/21 18:14:35;;;;;;;13.38;6.80;;;;;;;30.63;44.66;99749.11;5080912;56;1138777;-79
2021/06/21 18:19:41;;;;;;;18.82;7.42;;;;;;;30.41;44.98;99750.09;5081346;56;1138679;-80
2021/06/21 18:24:47;;;;;;;12.70;7.70;;;;;;;30.37;45.21;99748.19;5081623;56;1138788;-78
2021/06/21 18:29:53;;;;;;;21.48;7.67;;;;;;;30.34;45.21;99746.81;5081699;56;1139101;-78
2021/06/21 18:34:59;;;;;;;12.68;8.03;;;;;;;30.38;45.42;99746.56;5086054;56;1138954;-79
2021/06/21 18:40:10;;;;;;;14.98;8.55;;;;;;;30.40;45.51;99756.64;5103808;56;1138707;-79
2021/06/21 18:45:17;;;;;;;23.02;9.48;;;;;;;30.34;45.98;99756.36;5093340;56;1138697;-82
2021/06/21 18:50:25;;;;;;;14.53;8.43;;;;;;;30.38;45.92;99752.02;5164622;56;1138807;-77
2021/06/21 18:55:31;;;;;;;15.40;9.23;;;;;;;30.49;46.19;99743.86;5164010;56;1138821;-81
2021/06/21 19:00:39;;;;;;;15.10;9.45;;;;;;;30.57;45.91;99753.72;5164142;56;1138727;-77
2021/06/21 19:05:45;;;;;;;24.00;8.38;;;;;;;30.62;46.24;99746.10;5164438;56;1138602;-83
2021/06/21 19:10:51;;;;;;;38.13;9.50;;;;;;;30.56;45.98;99748.53;5164485;56;1138814;-81
2021/06/21 19:15:57;;;;;;;26.00;10.53;;;;;;;30.54;46.46;99752.92;5164399;56;1138726;-86
2021/06/21 19:21:02;;;;;;;23.87;8.98;;;;;;;30.60;46.87;99752.37;5164099;56;1140637;-85
2021/06/21 19:26:08;;;;;;;33.25;9.60;;;;;;;30.66;47.05;99754.04;5164683;56;1138835;-86
2021/06/21 19:31:15;;;;;;;16.70;13.55;;;;;;;30.60;47.04;99766.02;5164706;56;1138833;-85
2021/06/21 19:36:21;;;;;;;19.17;10.97;;;;;;;30.61;47.02;99767.12;5164423;56;1140824;-83
2021/06/21 19:41:27;;;;;;;18.27;9.77;;;;;;;30.60;47.03;99779.13;5164642;56;1140788;-81
2021/06/21 19:46:33;;;;;;;22.20;8.98;;;;;;;30.17;47.37;99780.83;5164639;56;1138722;-83
2021/06/21 19:51:39;;;;;;;15.28;9.30;;;;;;;29.76;48.23;99777.03;5164994;56;1138639;-85
2021/06/21 19:56:46;;;;;;;13.55;9.05;;;;;;;29.71;49.37;99790.07;5164313;56;1138579;-84
2021/06/21 20:01:51;;;;;;;12.58;9.05;;;;;;;29.64;49.71;99790.83;5157181;56;1138745;-80
2021/06/21 20:07:02;;;;;;;11.28;9.25;;;;;;;29.34;49.98;99803.63;5114828;56;1138637;-81
2021/06/21 20:12:09;;;;;;;27.37;10.35;;;;;;;29.18;50.90;99799.16;5109946;56;1138709;-80
2021/06/21 20:17:14;;;;;;;14.93;9.50;;;;;;;29.15;51.60;99795.59;5133759;56;1140853;-80
2021/06/21 20:22:20;;;;;;;15.53;10.77;;;;;;;29.20;51.82;99795.61;5114794;56;1138834;-86
2021/06/21 20:27:26;;;;;;;20.60;12.23;;;;;;;29.25;51.92;99786.13;5079322;57;1140730;-85
2021/06/21 20:32:33;;;;;;;16.82;11.78;;;;;;;29.34;51.79;99778.58;5078932;57;1140827;-86
2021/06/21 20:37:46;;;;;;;15.43;11.33;;;;;;;29.51;51.64;99773.56;5062786;56;1140938;-86
2021/06/21 20:42:49;;;;;;;13.90;10.90;;;;;;;29.51;51.64;99773.56;5032027;57;1140704;-83
2021/06/21 20:47:55;;;;;;;18.98;10.75;;;;;;;29.57;51.35;99782.07;5035181;56;1140617;-79
2021/06/21 20:53:00;;;;;;;16.32;11.12;;;;;;;29.61;51.24;99786.75;5073325;56;1140862;-82
2021/06/21 20:58:09;;;;;;;15.68;11.20;;;;;;;29.60;51.21;99786.47;5113023;56;1140853;-80
2021/06/21 21:03:15;;;;;;;27.73;11.68;;;;;;;29.58;51.23;99782.35;5047526;56;1140946;-81
2021/06/21 21:08:20;;;;;;;20.70;11.33;;;;;;;29.53;51.27;99777.67;5035580;56;1140980;-80
2021/06/21 21:13:27;;;;;;;15.90;11.05;;;;;;;29.37;51.13;99782.69;5032671;56;1140804;-83
2021/06/21 21:18:33;;;;;;;13.00;10.35;;;;;;;29.31;51.26;99782.39;5053440;57;1140941;-81
2021/06/21 21:23:39;;;;;;;17.73;11.45;;;;;;;29.19;51.11;99780.34;5049402;56;1140799;-78
2021/06/21 21:28:44;;;;;;;18.12;12.78;;;;;;;29.07;51.59;99776.97;5032194;56;1140639;-87
2021/06/21 21:33:51;;;;;;;13.58;11.70;;;;;;;28.78;51.70;99799.52;5054156;56;1140838;-78
2021/06/21 21:38:57;;;;;;;23.25;12.53;;;;;;;28.31;52.67;99791.36;5059366;56;1140795;-83
2021/06/21 21:44:04;;;;;;;16.50;12.63;;;;;;;27.97;53.29;99796.56;5093090;55;1140770;-83
2021/06/21 21:49:10;;;;;;;20.72;11.65;;;;;;;27.82;53.97;99797.16;5156802;55;1140800;-84
2021/06/21 21:54:16;;;;;;;22.55;11.08;;;;;;;27.87;54.50;99798.61;5094771;56;1140690;-80
2021/06/21 21:59:22;;;;;;;15.80;11.73;;;;;;;27.84;54.37;99804.53;5077244;56;1140845;-86
2021/06/21 22:04:28;;;;;;;17.25;11.75;;;;;;;27.72;54.38;99798.91;5077327;56;1140793;-81
2021/06/21 22:09:34;;;;;;;18.90;11.40;;;;;;;27.61;54.45;99793.87;5077792;56;1140960;-83
2021/06/21 22:14:41;;;;;;;26.23;13.62;;;;;;;27.52;54.67;99796.66;5077600;56;1140694;-86
2021/06/21 22:19:46;;;;;;;18.57;14.05;;;;;;;27.48;54.98;99795.53;5077425;56;1140920;-81
2021/06/21 22:24:53;;;;;;;24.00;12.93;;;;;;;27.38;55.16;99800.77;5077446;56;1140747;-78
2021/06/21 22:29:59;;;;;;;19.98;13.48;;;;;;;27.14;55.68;99800.93;5077469;56;1140654;-85
2021/06/21 22:35:08;;;;;;;15.43;12.58;;;;;;;27.01;56.14;99793.63;5077649;56;1140765;-81
2021/06/21 22:40:14;;;;;;;18.67;12.43;;;;;;;26.95;56.63;99788.09;5077244;56;1140922;-80
2021/06/21 22:45:21;;;;;;;19.08;12.72;;;;;;;26.76;57.10;99785.78;5077686;56;1140655;-82
2021/06/21 22:50:28;;;;;;;16.77;13.80;;;;;;;26.60;57.64;99792.27;5072291;56;1140850;-85
2021/06/21 22:55:34;;;;;;;27.47;13.63;;;;;;;26.65;58.22;99783.95;5055232;56;1140794;-81
2021/06/21 23:00:40;;;;;;;21.12;12.82;;;;;;;26.68;58.31;99787.02;5055054;56;1140994;-81
2021/06/21 23:05:46;;;;;;;27.45;12.93;;;;;;;26.57;58.58;99795.49;5054859;56;1140794;-82
2021/06/21 23:10:52;;;;;;;21.85;12.35;;;;;;;26.52;58.66;99794.55;5055086;56;1140695;-86
2021/06/21 23:15:58;;;;;;;18.82;12.15;;;;;;;26.48;58.85;99792.85;5054869;57;1140669;-80
2021/06/21 23:21:05;;;;;;;28.25;15.28;;;;;;;26.39;59.17;99790.23;5055026;56;1140716;-79
2021/06/21 23:26:11;;;;;;;18.55;13.78;;;;;;;26.29;59.36;99795.42;5054911;56;1140681;-85
2021/06/21 23:31:17;;;;;;;23.38;13.62;;;;;;;26.11;59.56;99792.33;5055056;57;1140931;-80